sensor_id;sensor_type;location;lat;lon;timestamp;P1;durP1;ratioP1;P2;durP2;ratioP2
69542;SDS011;56762;49.494;11.768;2022-12-29T00:01:00;5.25;;;2.25;;
69542;SDS011;56762;49.494;11.768;2022-12-29T00:03:28;5.43;;;2.08;;
69542;SDS011;56762;49.494;11.768;2022-12-29T00:05:57;6.45;;;2.83;;
69542;SDS011;56762;49.494;11.768;2022-12-29T00:08:25;6.38;;;2.22;;
69542;SDS011;56762;49.494;11.768;2022-12-29T00:11:06;5.03;;;2.13;;
69542;SDS011;56762;49.494;11.768;2022-12-29T00:13:34;4.72;;;1.92;;
69542;SDS011;56762;49.494;11.768;2022-12-29T00:16:21;5.80;;;2.45;;
69542;SDS011;56762;49.494;11.768;2022-12-29T00:18:50;5.20;;;2.45;;
69542;SDS011;56762;49.494;11.768;2022-12-29T00:21:18;4.18;;;2.10;;
69542;SDS011;56762;49.494;11.768;2022-12-29T00:24:20;6.93;;;2.93;;
69542;SDS011;56762;49.494;11.768;2022-12-29T00:27:10;4.90;;;2.20;;
69542;SDS011;56762;49.494;11.768;2022-12-29T00:29:57;7.45;;;2.63;;
69542;SDS011;56762;49.494;11.768;2022-12-29T00:32:44;8.68;;;3.25;;
69542;SDS011;56762;49.494;11.768;2022-12-29T00:35:30;5.57;;;2.83;;
69542;SDS011;56762;49.494;11.768;2022-12-29T00:38:02;7.17;;;3.23;;
69542;SDS011;56762;49.494;11.768;2022-12-29T00:40:50;4.45;;;2.28;;
69542;SDS011;56762;49.494;11.768;2022-12-29T00:43:35;4.13;;;2.03;;
69542;SDS011;56762;49.494;11.768;2022-12-29T00:46:24;4.72;;;2.25;;
69542;SDS011;56762;49.494;11.768;2022-12-29T00:48:53;4.38;;;2.30;;
69542;SDS011;56762;49.494;11.768;2022-12-29T00:51:39;4.70;;;2.20;;
69542;SDS011;56762;49.494;11.768;2022-12-29T00:54:07;5.43;;;2.40;;
69542;SDS011;56762;49.494;11.768;2022-12-29T00:56:35;7.07;;;2.38;;
69542;SDS011;56762;49.494;11.768;2022-12-29T00:59:04;6.90;;;2.22;;
69542;SDS011;56762;49.494;11.768;2022-12-29T01:01:33;4.15;;;2.20;;
69542;SDS011;56762;49.494;11.768;2022-12-29T01:04:03;4.33;;;1.67;;
69542;SDS011;56762;49.494;11.768;2022-12-29T01:06:32;4.95;;;2.00;;
69542;SDS011;56762;49.494;11.768;2022-12-29T01:09:11;4.32;;;1.80;;
69542;SDS011;56762;49.494;11.768;2022-12-29T01:11:57;4.53;;;1.90;;
69542;SDS011;56762;49.494;11.768;2022-12-29T01:14:25;6.47;;;2.20;;
69542;SDS011;56762;49.494;11.768;2022-12-29T01:16:53;5.90;;;2.63;;
69542;SDS011;56762;49.494;11.768;2022-12-29T01:19:24;7.75;;;2.20;;
69542;SDS011;56762;49.494;11.768;2022-12-29T01:21:53;4.95;;;2.17;;
69542;SDS011;56762;49.494;11.768;2022-12-29T01:24:21;5.10;;;1.92;;
69542;SDS011;56762;49.494;11.768;2022-12-29T01:26:52;7.53;;;3.58;;
69542;SDS011;56762;49.494;11.768;2022-12-29T01:29:21;7.67;;;3.37;;
69542;SDS011;56762;49.494;11.768;2022-12-29T01:31:49;6.30;;;2.30;;
69542;SDS011;56762;49.494;11.768;2022-12-29T01:34:18;6.43;;;2.35;;
69542;SDS011;56762;49.494;11.768;2022-12-29T01:36:47;5.15;;;2.20;;
69542;SDS011;56762;49.494;11.768;2022-12-29T01:39:15;5.20;;;2.00;;
69542;SDS011;56762;49.494;11.768;2022-12-29T01:41:43;4.83;;;1.87;;
69542;SDS011;56762;49.494;11.768;2022-12-29T01:47:20;6.55;;;1.80;;
69542;SDS011;56762;49.494;11.768;2022-12-29T01:49:54;4.82;;;1.92;;
69542;SDS011;56762;49.494;11.768;2022-12-29T01:52:26;4.93;;;2.22;;
69542;SDS011;56762;49.494;11.768;2022-12-29T01:54:57;4.17;;;1.60;;
69542;SDS011;56762;49.494;11.768;2022-12-29T01:57:27;6.40;;;2.10;;
69542;SDS011;56762;49.494;11.768;2022-12-29T02:00:00;4.60;;;1.33;;
69542;SDS011;56762;49.494;11.768;2022-12-29T02:02:34;6.55;;;1.42;;
69542;SDS011;56762;49.494;11.768;2022-12-29T02:05:04;3.90;;;1.58;;
69542;SDS011;56762;49.494;11.768;2022-12-29T02:07:38;3.33;;;1.30;;
69542;SDS011;56762;49.494;11.768;2022-12-29T02:10:07;4.65;;;1.70;;
69542;SDS011;56762;49.494;11.768;2022-12-29T02:12:35;5.60;;;1.80;;
69542;SDS011;56762;49.494;11.768;2022-12-29T02:15:03;3.80;;;1.42;;
69542;SDS011;56762;49.494;11.768;2022-12-29T02:17:41;5.40;;;2.00;;
69542;SDS011;56762;49.494;11.768;2022-12-29T02:20:24;9.33;;;3.47;;
69542;SDS011;56762;49.494;11.768;2022-12-29T02:26:23;11.32;;;3.60;;
69542;SDS011;56762;49.494;11.768;2022-12-29T02:29:07;4.78;;;1.80;;
69542;SDS011;56762;49.494;11.768;2022-12-29T02:31:54;3.35;;;1.38;;
69542;SDS011;56762;49.494;11.768;2022-12-29T02:34:30;3.77;;;1.10;;
69542;SDS011;56762;49.494;11.768;2022-12-29T02:37:10;3.95;;;1.23;;
69542;SDS011;56762;49.494;11.768;2022-12-29T02:39:47;3.10;;;1.25;;
69542;SDS011;56762;49.494;11.768;2022-12-29T02:42:22;3.97;;;1.38;;
69542;SDS011;56762;49.494;11.768;2022-12-29T02:44:59;3.58;;;1.20;;
69542;SDS011;56762;49.494;11.768;2022-12-29T02:47:36;4.00;;;1.60;;
69542;SDS011;56762;49.494;11.768;2022-12-29T02:50:08;3.38;;;1.55;;
69542;SDS011;56762;49.494;11.768;2022-12-29T02:52:44;4.35;;;1.48;;
69542;SDS011;56762;49.494;11.768;2022-12-29T02:55:15;4.35;;;1.13;;
69542;SDS011;56762;49.494;11.768;2022-12-29T02:57:46;3.28;;;1.50;;
69542;SDS011;56762;49.494;11.768;2022-12-29T03:00:18;4.47;;;1.57;;
69542;SDS011;56762;49.494;11.768;2022-12-29T03:08:44;2.33;;;0.88;;
69542;SDS011;56762;49.494;11.768;2022-12-29T03:11:17;3.25;;;1.15;;
69542;SDS011;56762;49.494;11.768;2022-12-29T03:14:12;3.17;;;1.17;;
69542;SDS011;56762;49.494;11.768;2022-12-29T03:17:03;3.58;;;1.17;;
69542;SDS011;56762;49.494;11.768;2022-12-29T03:19:38;4.07;;;1.33;;
69542;SDS011;56762;49.494;11.768;2022-12-29T03:22:11;2.70;;;1.23;;
69542;SDS011;56762;49.494;11.768;2022-12-29T03:24:59;4.57;;;1.38;;
69542;SDS011;56762;49.494;11.768;2022-12-29T03:27:31;3.67;;;1.20;;
69542;SDS011;56762;49.494;11.768;2022-12-29T03:30:02;3.25;;;1.15;;
69542;SDS011;56762;49.494;11.768;2022-12-29T03:32:33;3.33;;;1.20;;
69542;SDS011;56762;49.494;11.768;2022-12-29T03:35:05;2.13;;;1.00;;
69542;SDS011;56762;49.494;11.768;2022-12-29T03:37:36;2.92;;;1.33;;
69542;SDS011;56762;49.494;11.768;2022-12-29T03:40:07;3.43;;;0.93;;
69542;SDS011;56762;49.494;11.768;2022-12-29T03:42:36;3.08;;;1.20;;
69542;SDS011;56762;49.494;11.768;2022-12-29T03:45:06;4.18;;;1.65;;
69542;SDS011;56762;49.494;11.768;2022-12-29T03:47:35;3.72;;;1.08;;
69542;SDS011;56762;49.494;11.768;2022-12-29T03:50:05;3.08;;;1.20;;
69542;SDS011;56762;49.494;11.768;2022-12-29T03:52:35;2.90;;;1.30;;
69542;SDS011;56762;49.494;11.768;2022-12-29T03:55:02;2.72;;;0.93;;
69542;SDS011;56762;49.494;11.768;2022-12-29T03:57:31;3.03;;;1.30;;
69542;SDS011;56762;49.494;11.768;2022-12-29T03:59:59;3.30;;;1.20;;
69542;SDS011;56762;49.494;11.768;2022-12-29T04:02:27;3.47;;;1.60;;
69542;SDS011;56762;49.494;11.768;2022-12-29T04:04:55;3.73;;;1.30;;
69542;SDS011;56762;49.494;11.768;2022-12-29T04:07:24;2.83;;;1.30;;
69542;SDS011;56762;49.494;11.768;2022-12-29T04:09:52;4.47;;;1.55;;
69542;SDS011;56762;49.494;11.768;2022-12-29T04:12:21;3.35;;;1.40;;
69542;SDS011;56762;49.494;11.768;2022-12-29T04:14:48;3.05;;;1.33;;
69542;SDS011;56762;49.494;11.768;2022-12-29T04:17:17;4.33;;;1.43;;
69542;SDS011;56762;49.494;11.768;2022-12-29T04:19:45;4.00;;;1.52;;
69542;SDS011;56762;49.494;11.768;2022-12-29T04:22:13;3.65;;;1.52;;
69542;SDS011;56762;49.494;11.768;2022-12-29T04:24:44;4.32;;;1.67;;
69542;SDS011;56762;49.494;11.768;2022-12-29T04:27:13;4.07;;;1.60;;
69542;SDS011;56762;49.494;11.768;2022-12-29T04:29:41;2.53;;;1.13;;
69542;SDS011;56762;49.494;11.768;2022-12-29T04:32:09;3.00;;;1.25;;
69542;SDS011;56762;49.494;11.768;2022-12-29T04:34:37;3.35;;;1.00;;
69542;SDS011;56762;49.494;11.768;2022-12-29T04:37:05;5.35;;;1.65;;
69542;SDS011;56762;49.494;11.768;2022-12-29T04:39:33;5.90;;;1.75;;
69542;SDS011;56762;49.494;11.768;2022-12-29T04:42:02;5.53;;;1.83;;
69542;SDS011;56762;49.494;11.768;2022-12-29T04:44:30;4.32;;;1.77;;
69542;SDS011;56762;49.494;11.768;2022-12-29T04:47:00;4.13;;;1.60;;
69542;SDS011;56762;49.494;11.768;2022-12-29T04:49:27;4.40;;;1.70;;
69542;SDS011;56762;49.494;11.768;2022-12-29T04:51:55;3.00;;;1.42;;
69542;SDS011;56762;49.494;11.768;2022-12-29T04:54:23;3.03;;;1.23;;
69542;SDS011;56762;49.494;11.768;2022-12-29T04:56:52;4.70;;;1.50;;
69542;SDS011;56762;49.494;11.768;2022-12-29T04:59:21;3.58;;;1.50;;
69542;SDS011;56762;49.494;11.768;2022-12-29T05:01:49;2.75;;;1.30;;
69542;SDS011;56762;49.494;11.768;2022-12-29T05:04:17;2.90;;;1.38;;
69542;SDS011;56762;49.494;11.768;2022-12-29T05:06:45;3.43;;;1.30;;
69542;SDS011;56762;49.494;11.768;2022-12-29T05:09:13;3.90;;;1.65;;
69542;SDS011;56762;49.494;11.768;2022-12-29T05:11:43;4.70;;;1.88;;
69542;SDS011;56762;49.494;11.768;2022-12-29T05:14:11;3.63;;;1.58;;
69542;SDS011;56762;49.494;11.768;2022-12-29T05:16:41;2.50;;;1.30;;
69542;SDS011;56762;49.494;11.768;2022-12-29T05:19:09;7.47;;;1.50;;
69542;SDS011;56762;49.494;11.768;2022-12-29T05:21:37;4.63;;;1.35;;
69542;SDS011;56762;49.494;11.768;2022-12-29T05:24:05;3.65;;;1.50;;
69542;SDS011;56762;49.494;11.768;2022-12-29T05:26:33;3.05;;;1.17;;
69542;SDS011;56762;49.494;11.768;2022-12-29T05:29:01;3.33;;;1.48;;
69542;SDS011;56762;49.494;11.768;2022-12-29T05:31:29;2.37;;;0.90;;
69542;SDS011;56762;49.494;11.768;2022-12-29T05:33:58;3.60;;;0.90;;
69542;SDS011;56762;49.494;11.768;2022-12-29T05:36:26;2.97;;;0.90;;
69542;SDS011;56762;49.494;11.768;2022-12-29T05:39:02;2.47;;;0.70;;
69542;SDS011;56762;49.494;11.768;2022-12-29T05:41:30;2.63;;;0.80;;
69542;SDS011;56762;49.494;11.768;2022-12-29T05:43:59;2.37;;;0.70;;
69542;SDS011;56762;49.494;11.768;2022-12-29T05:46:26;2.20;;;0.70;;
69542;SDS011;56762;49.494;11.768;2022-12-29T05:48:54;4.95;;;0.82;;
69542;SDS011;56762;49.494;11.768;2022-12-29T05:51:24;2.53;;;0.60;;
69542;SDS011;56762;49.494;11.768;2022-12-29T05:53:52;1.90;;;0.75;;
69542;SDS011;56762;49.494;11.768;2022-12-29T05:56:20;1.93;;;0.70;;
69542;SDS011;56762;49.494;11.768;2022-12-29T05:58:49;2.22;;;0.68;;
69542;SDS011;56762;49.494;11.768;2022-12-29T06:01:17;1.63;;;0.47;;
69542;SDS011;56762;49.494;11.768;2022-12-29T06:03:45;2.20;;;0.60;;
69542;SDS011;56762;49.494;11.768;2022-12-29T06:06:14;2.42;;;0.80;;
69542;SDS011;56762;49.494;11.768;2022-12-29T06:08:43;1.57;;;0.60;;
69542;SDS011;56762;49.494;11.768;2022-12-29T06:11:11;3.10;;;1.20;;
69542;SDS011;56762;49.494;11.768;2022-12-29T06:13:39;2.75;;;0.70;;
69542;SDS011;56762;49.494;11.768;2022-12-29T06:16:07;4.47;;;0.93;;
69542;SDS011;56762;49.494;11.768;2022-12-29T06:18:35;1.70;;;0.50;;
69542;SDS011;56762;49.494;11.768;2022-12-29T06:21:03;6.20;;;0.63;;
69542;SDS011;56762;49.494;11.768;2022-12-29T06:23:32;1.88;;;0.50;;
69542;SDS011;56762;49.494;11.768;2022-12-29T06:26:01;3.00;;;0.70;;
69542;SDS011;56762;49.494;11.768;2022-12-29T06:28:29;3.03;;;0.90;;
69542;SDS011;56762;49.494;11.768;2022-12-29T06:30:57;2.38;;;0.77;;
69542;SDS011;56762;49.494;11.768;2022-12-29T06:33:25;2.53;;;0.70;;
69542;SDS011;56762;49.494;11.768;2022-12-29T06:35:53;1.88;;;0.43;;
69542;SDS011;56762;49.494;11.768;2022-12-29T06:38:21;2.35;;;0.77;;
69542;SDS011;56762;49.494;11.768;2022-12-29T06:40:49;2.17;;;0.40;;
69542;SDS011;56762;49.494;11.768;2022-12-29T06:43:18;3.28;;;1.00;;
69542;SDS011;56762;49.494;11.768;2022-12-29T06:45:46;3.90;;;0.80;;
69542;SDS011;56762;49.494;11.768;2022-12-29T06:48:14;4.05;;;1.08;;
69542;SDS011;56762;49.494;11.768;2022-12-29T06:50:42;4.63;;;1.80;;
69542;SDS011;56762;49.494;11.768;2022-12-29T06:53:10;4.63;;;1.70;;
69542;SDS011;56762;49.494;11.768;2022-12-29T06:55:39;5.55;;;3.67;;
69542;SDS011;56762;49.494;11.768;2022-12-29T06:58:06;4.57;;;2.30;;
69542;SDS011;56762;49.494;11.768;2022-12-29T07:00:37;2.85;;;1.25;;
69542;SDS011;56762;49.494;11.768;2022-12-29T07:03:05;2.60;;;1.50;;
69542;SDS011;56762;49.494;11.768;2022-12-29T07:05:34;3.70;;;1.65;;
69542;SDS011;56762;49.494;11.768;2022-12-29T07:08:01;4.07;;;1.90;;
69542;SDS011;56762;49.494;11.768;2022-12-29T07:10:30;3.57;;;1.43;;
69542;SDS011;56762;49.494;11.768;2022-12-29T07:12:57;3.38;;;1.00;;
69542;SDS011;56762;49.494;11.768;2022-12-29T07:15:25;3.75;;;1.35;;
69542;SDS011;56762;49.494;11.768;2022-12-29T07:17:55;4.72;;;1.70;;
69542;SDS011;56762;49.494;11.768;2022-12-29T07:20:23;2.97;;;1.38;;
69542;SDS011;56762;49.494;11.768;2022-12-29T07:22:52;3.10;;;1.27;;
69542;SDS011;56762;49.494;11.768;2022-12-29T07:25:20;3.53;;;1.13;;
69542;SDS011;56762;49.494;11.768;2022-12-29T07:27:48;2.75;;;1.05;;
69542;SDS011;56762;49.494;11.768;2022-12-29T07:30:16;3.30;;;1.17;;
69542;SDS011;56762;49.494;11.768;2022-12-29T07:32:44;4.85;;;1.80;;
69542;SDS011;56762;49.494;11.768;2022-12-29T07:35:13;3.10;;;0.77;;
69542;SDS011;56762;49.494;11.768;2022-12-29T07:37:42;3.05;;;0.90;;
69542;SDS011;56762;49.494;11.768;2022-12-29T07:40:10;2.85;;;0.82;;
69542;SDS011;56762;49.494;11.768;2022-12-29T07:42:39;2.72;;;1.08;;
69542;SDS011;56762;49.494;11.768;2022-12-29T07:45:07;3.88;;;1.92;;
69542;SDS011;56762;49.494;11.768;2022-12-29T07:47:36;3.57;;;1.37;;
69542;SDS011;56762;49.494;11.768;2022-12-29T07:50:05;2.35;;;0.90;;
69542;SDS011;56762;49.494;11.768;2022-12-29T07:52:34;3.00;;;1.17;;
69542;SDS011;56762;49.494;11.768;2022-12-29T07:55:02;3.90;;;1.50;;
69542;SDS011;56762;49.494;11.768;2022-12-29T07:57:30;3.45;;;1.45;;
69542;SDS011;56762;49.494;11.768;2022-12-29T07:59:58;2.53;;;1.17;;
69542;SDS011;56762;49.494;11.768;2022-12-29T08:02:30;3.92;;;1.50;;
69542;SDS011;56762;49.494;11.768;2022-12-29T08:04:58;3.10;;;1.20;;
69542;SDS011;56762;49.494;11.768;2022-12-29T08:07:25;3.67;;;1.80;;
69542;SDS011;56762;49.494;11.768;2022-12-29T08:09:55;4.32;;;1.35;;
69542;SDS011;56762;49.494;11.768;2022-12-29T08:12:24;3.20;;;1.07;;
69542;SDS011;56762;49.494;11.768;2022-12-29T08:14:52;2.55;;;1.15;;
69542;SDS011;56762;49.494;11.768;2022-12-29T08:17:20;3.13;;;0.88;;
69542;SDS011;56762;49.494;11.768;2022-12-29T08:19:48;3.20;;;0.80;;
69542;SDS011;56762;49.494;11.768;2022-12-29T08:22:16;3.00;;;1.10;;
69542;SDS011;56762;49.494;11.768;2022-12-29T08:24:44;2.97;;;0.80;;
69542;SDS011;56762;49.494;11.768;2022-12-29T08:27:13;2.53;;;0.88;;
69542;SDS011;56762;49.494;11.768;2022-12-29T08:29:46;2.78;;;0.80;;
69542;SDS011;56762;49.494;11.768;2022-12-29T08:32:14;2.05;;;0.80;;
69542;SDS011;56762;49.494;11.768;2022-12-29T08:34:43;3.40;;;0.90;;
69542;SDS011;56762;49.494;11.768;2022-12-29T08:37:11;2.63;;;1.10;;
69542;SDS011;56762;49.494;11.768;2022-12-29T08:39:39;2.25;;;0.63;;
69542;SDS011;56762;49.494;11.768;2022-12-29T08:42:07;3.20;;;1.05;;
69542;SDS011;56762;49.494;11.768;2022-12-29T08:44:37;4.03;;;1.00;;
69542;SDS011;56762;49.494;11.768;2022-12-29T08:47:05;3.13;;;0.90;;
69542;SDS011;56762;49.494;11.768;2022-12-29T08:49:33;2.07;;;0.70;;
69542;SDS011;56762;49.494;11.768;2022-12-29T08:52:01;4.38;;;0.98;;
69542;SDS011;56762;49.494;11.768;2022-12-29T08:54:29;3.08;;;0.80;;
69542;SDS011;56762;49.494;11.768;2022-12-29T08:56:58;3.67;;;1.25;;
69542;SDS011;56762;49.494;11.768;2022-12-29T08:59:26;3.30;;;1.05;;
69542;SDS011;56762;49.494;11.768;2022-12-29T09:01:55;3.07;;;1.13;;
69542;SDS011;56762;49.494;11.768;2022-12-29T09:04:23;2.65;;;1.10;;
69542;SDS011;56762;49.494;11.768;2022-12-29T09:06:51;2.60;;;0.90;;
69542;SDS011;56762;49.494;11.768;2022-12-29T09:09:19;3.75;;;1.05;;
69542;SDS011;56762;49.494;11.768;2022-12-29T09:11:47;2.25;;;0.90;;
69542;SDS011;56762;49.494;11.768;2022-12-29T09:14:15;2.17;;;0.90;;
69542;SDS011;56762;49.494;11.768;2022-12-29T09:16:44;3.00;;;1.20;;
69542;SDS011;56762;49.494;11.768;2022-12-29T09:19:31;4.78;;;1.60;;
69542;SDS011;56762;49.494;11.768;2022-12-29T09:21:59;4.40;;;1.98;;
69542;SDS011;56762;49.494;11.768;2022-12-29T09:24:27;5.82;;;2.00;;
69542;SDS011;56762;49.494;11.768;2022-12-29T09:26:55;4.83;;;1.37;;
69542;SDS011;56762;49.494;11.768;2022-12-29T09:29:23;3.60;;;1.88;;
69542;SDS011;56762;49.494;11.768;2022-12-29T09:31:51;3.53;;;1.25;;
69542;SDS011;56762;49.494;11.768;2022-12-29T09:34:19;3.90;;;1.00;;
69542;SDS011;56762;49.494;11.768;2022-12-29T09:36:49;2.50;;;1.08;;
69542;SDS011;56762;49.494;11.768;2022-12-29T09:39:17;4.53;;;1.07;;
69542;SDS011;56762;49.494;11.768;2022-12-29T09:41:47;4.03;;;1.00;;
69542;SDS011;56762;49.494;11.768;2022-12-29T09:44:19;3.50;;;1.33;;
69542;SDS011;56762;49.494;11.768;2022-12-29T09:46:53;5.95;;;1.65;;
69542;SDS011;56762;49.494;11.768;2022-12-29T09:49:24;5.60;;;1.60;;
69542;SDS011;56762;49.494;11.768;2022-12-29T09:51:57;3.60;;;1.30;;
69542;SDS011;56762;49.494;11.768;2022-12-29T09:54:36;4.80;;;1.35;;
69542;SDS011;56762;49.494;11.768;2022-12-29T09:57:18;3.63;;;1.10;;
69542;SDS011;56762;49.494;11.768;2022-12-29T09:59:50;4.95;;;1.30;;
69542;SDS011;56762;49.494;11.768;2022-12-29T10:02:29;3.33;;;1.25;;
69542;SDS011;56762;49.494;11.768;2022-12-29T10:05:00;3.43;;;1.27;;
69542;SDS011;56762;49.494;11.768;2022-12-29T10:07:38;2.60;;;0.90;;
69542;SDS011;56762;49.494;11.768;2022-12-29T10:10:16;5.15;;;1.35;;
69542;SDS011;56762;49.494;11.768;2022-12-29T10:12:58;4.10;;;1.20;;
69542;SDS011;56762;49.494;11.768;2022-12-29T10:15:38;5.13;;;1.20;;
69542;SDS011;56762;49.494;11.768;2022-12-29T10:18:17;4.33;;;1.40;;
69542;SDS011;56762;49.494;11.768;2022-12-29T10:20:53;2.55;;;0.90;;
69542;SDS011;56762;49.494;11.768;2022-12-29T10:23:31;3.28;;;1.27;;
69542;SDS011;56762;49.494;11.768;2022-12-29T10:26:03;3.13;;;1.40;;
69542;SDS011;56762;49.494;11.768;2022-12-29T10:28:39;3.75;;;1.30;;
69542;SDS011;56762;49.494;11.768;2022-12-29T10:31:11;3.20;;;1.30;;
69542;SDS011;56762;49.494;11.768;2022-12-29T10:33:46;4.65;;;1.65;;
69542;SDS011;56762;49.494;11.768;2022-12-29T10:36:19;6.30;;;1.58;;
69542;SDS011;56762;49.494;11.768;2022-12-29T10:39:03;6.53;;;1.63;;
69542;SDS011;56762;49.494;11.768;2022-12-29T10:41:39;4.00;;;1.60;;
69542;SDS011;56762;49.494;11.768;2022-12-29T10:44:14;4.83;;;1.50;;
69542;SDS011;56762;49.494;11.768;2022-12-29T10:46:44;7.13;;;2.58;;
69542;SDS011;56762;49.494;11.768;2022-12-29T10:49:18;6.55;;;2.78;;
69542;SDS011;56762;49.494;11.768;2022-12-29T10:51:48;5.10;;;1.55;;
69542;SDS011;56762;49.494;11.768;2022-12-29T10:54:21;4.40;;;1.10;;
69542;SDS011;56762;49.494;11.768;2022-12-29T10:56:54;5.70;;;1.70;;
69542;SDS011;56762;49.494;11.768;2022-12-29T10:59:29;5.32;;;1.80;;
69542;SDS011;56762;49.494;11.768;2022-12-29T11:02:01;8.00;;;1.60;;
69542;SDS011;56762;49.494;11.768;2022-12-29T11:04:46;3.95;;;1.45;;
69542;SDS011;56762;49.494;11.768;2022-12-29T11:07:20;5.60;;;1.75;;
69542;SDS011;56762;49.494;11.768;2022-12-29T11:09:54;4.27;;;1.63;;
69542;SDS011;56762;49.494;11.768;2022-12-29T11:12:23;3.13;;;0.82;;
69542;SDS011;56762;49.494;11.768;2022-12-29T11:15:11;6.07;;;1.40;;
69542;SDS011;56762;49.494;11.768;2022-12-29T11:17:44;2.72;;;0.70;;
69542;SDS011;56762;49.494;11.768;2022-12-29T11:20:30;5.18;;;0.70;;
69542;SDS011;56762;49.494;11.768;2022-12-29T11:23:01;2.13;;;0.87;;
69542;SDS011;56762;49.494;11.768;2022-12-29T11:25:37;2.78;;;1.00;;
69542;SDS011;56762;49.494;11.768;2022-12-29T11:28:15;3.55;;;1.05;;
69542;SDS011;56762;49.494;11.768;2022-12-29T11:30:44;3.03;;;1.23;;
69542;SDS011;56762;49.494;11.768;2022-12-29T11:33:12;4.72;;;1.30;;
69542;SDS011;56762;49.494;11.768;2022-12-29T11:35:41;4.07;;;1.27;;
69542;SDS011;56762;49.494;11.768;2022-12-29T11:38:16;4.72;;;2.10;;
69542;SDS011;56762;49.494;11.768;2022-12-29T11:40:49;2.70;;;1.10;;
69542;SDS011;56762;49.494;11.768;2022-12-29T11:43:19;2.53;;;0.80;;
69542;SDS011;56762;49.494;11.768;2022-12-29T11:45:52;3.13;;;0.90;;
69542;SDS011;56762;49.494;11.768;2022-12-29T11:48:23;2.70;;;0.90;;
69542;SDS011;56762;49.494;11.768;2022-12-29T11:50:54;2.45;;;0.85;;
69542;SDS011;56762;49.494;11.768;2022-12-29T11:53:26;3.45;;;0.75;;
69542;SDS011;56762;49.494;11.768;2022-12-29T11:55:57;2.10;;;0.70;;
69542;SDS011;56762;49.494;11.768;2022-12-29T11:58:28;3.00;;;0.82;;
69542;SDS011;56762;49.494;11.768;2022-12-29T12:00:59;4.03;;;0.80;;
69542;SDS011;56762;49.494;11.768;2022-12-29T12:03:30;2.53;;;0.70;;
69542;SDS011;56762;49.494;11.768;2022-12-29T12:06:00;3.13;;;0.77;;
69542;SDS011;56762;49.494;11.768;2022-12-29T12:08:31;1.80;;;0.77;;
69542;SDS011;56762;49.494;11.768;2022-12-29T12:11:07;4.05;;;0.80;;
69542;SDS011;56762;49.494;11.768;2022-12-29T12:13:40;3.23;;;0.90;;
69542;SDS011;56762;49.494;11.768;2022-12-29T12:16:15;4.35;;;1.00;;
69542;SDS011;56762;49.494;11.768;2022-12-29T12:18:45;3.05;;;0.70;;
69542;SDS011;56762;49.494;11.768;2022-12-29T12:21:20;2.97;;;0.90;;
69542;SDS011;56762;49.494;11.768;2022-12-29T12:24:02;3.97;;;1.13;;
69542;SDS011;56762;49.494;11.768;2022-12-29T12:26:49;4.50;;;1.00;;
69542;SDS011;56762;49.494;11.768;2022-12-29T12:29:24;4.72;;;1.30;;
69542;SDS011;56762;49.494;11.768;2022-12-29T12:31:59;4.60;;;1.17;;
69542;SDS011;56762;49.494;11.768;2022-12-29T12:34:32;4.35;;;1.20;;
69542;SDS011;56762;49.494;11.768;2022-12-29T12:40:07;4.07;;;0.87;;
69542;SDS011;56762;49.494;11.768;2022-12-29T12:42:52;5.40;;;0.95;;
69542;SDS011;56762;49.494;11.768;2022-12-29T12:45:32;3.28;;;0.80;;
69542;SDS011;56762;49.494;11.768;2022-12-29T12:48:18;4.18;;;0.90;;
69542;SDS011;56762;49.494;11.768;2022-12-29T12:50:59;1.77;;;0.57;;
69542;SDS011;56762;49.494;11.768;2022-12-29T12:53:44;3.87;;;0.90;;
69542;SDS011;56762;49.494;11.768;2022-12-29T12:56:30;2.53;;;0.80;;
69542;SDS011;56762;49.494;11.768;2022-12-29T12:59:20;3.80;;;1.10;;
69542;SDS011;56762;49.494;11.768;2022-12-29T13:02:00;2.15;;;0.77;;
69542;SDS011;56762;49.494;11.768;2022-12-29T13:04:46;4.10;;;0.95;;
69542;SDS011;56762;49.494;11.768;2022-12-29T13:07:26;3.07;;;0.80;;
69542;SDS011;56762;49.494;11.768;2022-12-29T13:10:05;3.22;;;0.63;;
69542;SDS011;56762;49.494;11.768;2022-12-29T13:12:46;3.05;;;0.82;;
69542;SDS011;56762;49.494;11.768;2022-12-29T13:15:24;1.92;;;0.80;;
69542;SDS011;56762;49.494;11.768;2022-12-29T13:18:05;3.28;;;1.15;;
69542;SDS011;56762;49.494;11.768;2022-12-29T13:20:46;3.13;;;1.30;;
69542;SDS011;56762;49.494;11.768;2022-12-29T13:23:19;4.18;;;1.30;;
69542;SDS011;56762;49.494;11.768;2022-12-29T13:25:56;2.88;;;0.88;;
69542;SDS011;56762;49.494;11.768;2022-12-29T13:28:33;2.85;;;0.90;;
69542;SDS011;56762;49.494;11.768;2022-12-29T13:31:07;6.45;;;1.33;;
69542;SDS011;56762;49.494;11.768;2022-12-29T13:33:46;4.60;;;0.87;;
69542;SDS011;56762;49.494;11.768;2022-12-29T13:36:22;9.15;;;3.13;;
69542;SDS011;56762;49.494;11.768;2022-12-29T13:38:58;3.50;;;1.20;;
69542;SDS011;56762;49.494;11.768;2022-12-29T13:41:33;5.18;;;1.23;;
69542;SDS011;56762;49.494;11.768;2022-12-29T13:44:04;3.92;;;0.75;;
69542;SDS011;56762;49.494;11.768;2022-12-29T13:46:37;2.90;;;0.90;;
69542;SDS011;56762;49.494;11.768;2022-12-29T13:49:08;3.13;;;1.17;;
69542;SDS011;56762;49.494;11.768;2022-12-29T13:51:41;3.80;;;1.02;;
69542;SDS011;56762;49.494;11.768;2022-12-29T13:54:17;3.17;;;0.88;;
69542;SDS011;56762;49.494;11.768;2022-12-29T13:56:56;3.53;;;1.15;;
69542;SDS011;56762;49.494;11.768;2022-12-29T13:59:36;4.03;;;1.50;;
69542;SDS011;56762;49.494;11.768;2022-12-29T14:02:17;4.45;;;1.38;;
69542;SDS011;56762;49.494;11.768;2022-12-29T14:05:00;3.03;;;1.10;;
69542;SDS011;56762;49.494;11.768;2022-12-29T14:07:36;3.13;;;1.40;;
69542;SDS011;56762;49.494;11.768;2022-12-29T14:10:05;4.47;;;1.17;;
69542;SDS011;56762;49.494;11.768;2022-12-29T14:12:35;3.87;;;1.00;;
69542;SDS011;56762;49.494;11.768;2022-12-29T14:15:06;3.55;;;0.90;;
69542;SDS011;56762;49.494;11.768;2022-12-29T14:17:59;4.90;;;1.10;;
69542;SDS011;56762;49.494;11.768;2022-12-29T14:20:30;3.78;;;1.50;;
69542;SDS011;56762;49.494;11.768;2022-12-29T14:23:00;2.85;;;1.02;;
69542;SDS011;56762;49.494;11.768;2022-12-29T14:25:51;3.97;;;1.50;;
69542;SDS011;56762;49.494;11.768;2022-12-29T14:28:24;4.57;;;1.52;;
69542;SDS011;56762;49.494;11.768;2022-12-29T14:30:53;4.93;;;1.73;;
69542;SDS011;56762;49.494;11.768;2022-12-29T14:33:24;2.83;;;1.23;;
69542;SDS011;56762;49.494;11.768;2022-12-29T14:35:57;4.30;;;1.00;;
69542;SDS011;56762;49.494;11.768;2022-12-29T14:38:49;2.83;;;1.20;;
69542;SDS011;56762;49.494;11.768;2022-12-29T14:41:24;3.38;;;0.98;;
69542;SDS011;56762;49.494;11.768;2022-12-29T14:43:56;3.63;;;1.10;;
69542;SDS011;56762;49.494;11.768;2022-12-29T14:46:41;4.97;;;1.90;;
69542;SDS011;56762;49.494;11.768;2022-12-29T14:49:16;4.18;;;1.38;;
69542;SDS011;56762;49.494;11.768;2022-12-29T14:51:47;4.23;;;1.50;;
69542;SDS011;56762;49.494;11.768;2022-12-29T14:54:34;3.72;;;1.20;;
69542;SDS011;56762;49.494;11.768;2022-12-29T14:57:18;4.57;;;1.45;;
69542;SDS011;56762;49.494;11.768;2022-12-29T14:59:52;3.05;;;1.02;;
69542;SDS011;56762;49.494;11.768;2022-12-29T15:02:24;3.17;;;1.17;;
69542;SDS011;56762;49.494;11.768;2022-12-29T15:05:00;3.43;;;1.43;;
69542;SDS011;56762;49.494;11.768;2022-12-29T15:07:30;4.30;;;2.00;;
69542;SDS011;56762;49.494;11.768;2022-12-29T15:10:00;4.78;;;1.70;;
69542;SDS011;56762;49.494;11.768;2022-12-29T15:12:35;4.07;;;1.83;;
69542;SDS011;56762;49.494;11.768;2022-12-29T15:15:19;5.88;;;1.67;;
69542;SDS011;56762;49.494;11.768;2022-12-29T15:17:48;3.07;;;1.47;;
69542;SDS011;56762;49.494;11.768;2022-12-29T15:20:21;3.33;;;1.25;;